sensor_id;sensor_type;location;lat;lon;timestamp;temperature;humidity
5196;DHT22;2617;51.006;12.436;2022-10-16T00:00:33;15.30;99.90
5196;DHT22;2617;51.006;12.436;2022-10-16T00:05:39;15.40;99.90
5196;DHT22;2617;51.006;12.436;2022-10-16T00:10:41;15.40;99.90
5196;DHT22;2617;51.006;12.436;2022-10-16T00:15:44;15.50;99.90
5196;DHT22;2617;51.006;12.436;2022-10-16T00:20:47;15.50;99.90
5196;DHT22;2617;51.006;12.436;2022-10-16T00:25:55;15.50;99.90
5196;DHT22;2617;51.006;12.436;2022-10-16T00:30:58;15.50;99.90
5196;DHT22;2617;51.006;12.436;2022-10-16T00:36:00;15.50;99.90
5196;DHT22;2617;51.006;12.436;2022-10-16T00:41:03;15.40;99.90
5196;DHT22;2617;51.006;12.436;2022-10-16T00:46:37;15.30;99.90
5196;DHT22;2617;51.006;12.436;2022-10-16T00:51:40;15.40;99.90
5196;DHT22;2617;51.006;12.436;2022-10-16T00:56:42;15.30;99.90
5196;DHT22;2617;51.006;12.436;2022-10-16T01:01:44;15.30;99.90
5196;DHT22;2617;51.006;12.436;2022-10-16T01:12:32;15.30;99.90
5196;DHT22;2617;51.006;12.436;2022-10-16T01:17:38;15.30;99.90
5196;DHT22;2617;51.006;12.436;2022-10-16T01:22:44;15.30;99.90
5196;DHT22;2617;51.006;12.436;2022-10-16T01:27:47;15.30;99.90
5196;DHT22;2617;51.006;12.436;2022-10-16T01:32:57;15.30;99.90
5196;DHT22;2617;51.006;12.436;2022-10-16T01:38:10;15.30;99.90
5196;DHT22;2617;51.006;12.436;2022-10-16T01:43:17;15.40;99.90
5196;DHT22;2617;51.006;12.436;2022-10-16T01:48:18;15.30;99.90
5196;DHT22;2617;51.006;12.436;2022-10-16T01:53:20;15.20;99.90
5196;DHT22;2617;51.006;12.436;2022-10-16T01:58:23;15.20;99.90
5196;DHT22;2617;51.006;12.436;2022-10-16T02:03:25;15.10;99.90
5196;DHT22;2617;51.006;12.436;2022-10-16T02:08:28;15.10;99.90
5196;DHT22;2617;51.006;12.436;2022-10-16T02:18:48;14.90;99.90
5196;DHT22;2617;51.006;12.436;2022-10-16T02:23:58;14.90;99.90
5196;DHT22;2617;51.006;12.436;2022-10-16T02:29:01;14.90;99.90
5196;DHT22;2617;51.006;12.436;2022-10-16T02:34:03;14.90;99.90
5196;DHT22;2617;51.006;12.436;2022-10-16T02:39:05;14.80;99.90
5196;DHT22;2617;51.006;12.436;2022-10-16T02:44:09;14.80;99.90
5196;DHT22;2617;51.006;12.436;2022-10-16T02:49:11;14.80;99.90
5196;DHT22;2617;51.006;12.436;2022-10-16T02:54:14;14.80;99.90
5196;DHT22;2617;51.006;12.436;2022-10-16T02:59:16;14.80;99.90
5196;DHT22;2617;51.006;12.436;2022-10-16T03:04:18;14.80;99.90
5196;DHT22;2617;51.006;12.436;2022-10-16T03:09:21;14.80;99.90
5196;DHT22;2617;51.006;12.436;2022-10-16T03:14:24;14.90;99.90
5196;DHT22;2617;51.006;12.436;2022-10-16T03:19:27;15.00;99.90
5196;DHT22;2617;51.006;12.436;2022-10-16T03:24:30;15.00;99.90
5196;DHT22;2617;51.006;12.436;2022-10-16T03:29:33;14.90;99.90
5196;DHT22;2617;51.006;12.436;2022-10-16T03:34:35;15.00;99.90
5196;DHT22;2617;51.006;12.436;2022-10-16T03:39:37;15.00;99.90
5196;DHT22;2617;51.006;12.436;2022-10-16T03:44:41;14.90;99.90
5196;DHT22;2617;51.006;12.436;2022-10-16T03:49:43;14.90;99.90
5196;DHT22;2617;51.006;12.436;2022-10-16T03:54:45;14.90;99.90
5196;DHT22;2617;51.006;12.436;2022-10-16T03:59:48;14.90;99.90
5196;DHT22;2617;51.006;12.436;2022-10-16T04:04:50;14.90;99.90
5196;DHT22;2617;51.006;12.436;2022-10-16T04:09:53;14.90;99.90
5196;DHT22;2617;51.006;12.436;2022-10-16T04:14:55;14.90;99.90
5196;DHT22;2617;51.006;12.436;2022-10-16T04:19:58;14.90;99.90
5196;DHT22;2617;51.006;12.436;2022-10-16T04:25:00;14.90;99.90
5196;DHT22;2617;51.006;12.436;2022-10-16T04:30:03;15.00;99.90
5196;DHT22;2617;51.006;12.436;2022-10-16T04:35:06;15.00;99.90
5196;DHT22;2617;51.006;12.436;2022-10-16T04:40:10;14.90;99.90
5196;DHT22;2617;51.006;12.436;2022-10-16T04:45:14;14.90;99.90
5196;DHT22;2617;51.006;12.436;2022-10-16T04:50:16;14.90;99.90
5196;DHT22;2617;51.006;12.436;2022-10-16T04:55:19;14.80;99.90
5196;DHT22;2617;51.006;12.436;2022-10-16T05:00:22;14.80;99.90
5196;DHT22;2617;51.006;12.436;2022-10-16T05:05:25;14.80;99.90
5196;DHT22;2617;51.006;12.436;2022-10-16T05:10:27;14.80;99.90
5196;DHT22;2617;51.006;12.436;2022-10-16T05:15:30;14.80;99.90
5196;DHT22;2617;51.006;12.436;2022-10-16T05:20:33;14.90;99.90
5196;DHT22;2617;51.006;12.436;2022-10-16T05:25:35;14.80;99.90
5196;DHT22;2617;51.006;12.436;2022-10-16T05:30:38;14.80;99.90
5196;DHT22;2617;51.006;12.436;2022-10-16T05:35:41;14.90;99.90
5196;DHT22;2617;51.006;12.436;2022-10-16T05:40:43;14.90;99.90
5196;DHT22;2617;51.006;12.436;2022-10-16T05:45:53;14.90;99.90
5196;DHT22;2617;51.006;12.436;2022-10-16T05:50:56;14.90;99.90
5196;DHT22;2617;51.006;12.436;2022-10-16T05:56:02;15.00;99.90
5196;DHT22;2617;51.006;12.436;2022-10-16T06:01:06;15.00;99.90
5196;DHT22;2617;51.006;12.436;2022-10-16T06:06:09;15.00;99.90
5196;DHT22;2617;51.006;12.436;2022-10-16T06:11:12;15.10;99.90
5196;DHT22;2617;51.006;12.436;2022-10-16T06:16:13;15.20;99.90
5196;DHT22;2617;51.006;12.436;2022-10-16T06:21:18;15.30;99.90
5196;DHT22;2617;51.006;12.436;2022-10-16T06:26:20;15.40;99.90
5196;DHT22;2617;51.006;12.436;2022-10-16T06:31:23;15.70;99.90
5196;DHT22;2617;51.006;12.436;2022-10-16T06:36:25;15.70;99.90
5196;DHT22;2617;51.006;12.436;2022-10-16T06:41:28;15.90;99.90
5196;DHT22;2617;51.006;12.436;2022-10-16T06:46:31;15.90;99.90
5196;DHT22;2617;51.006;12.436;2022-10-16T06:51:34;16.00;99.90
5196;DHT22;2617;51.006;12.436;2022-10-16T06:56:36;16.00;99.90
5196;DHT22;2617;51.006;12.436;2022-10-16T07:01:39;16.00;99.90
5196;DHT22;2617;51.006;12.436;2022-10-16T07:06:41;16.00;99.90
5196;DHT22;2617;51.006;12.436;2022-10-16T07:11:44;16.20;99.90
5196;DHT22;2617;51.006;12.436;2022-10-16T07:16:47;16.20;99.90
5196;DHT22;2617;51.006;12.436;2022-10-16T07:21:49;16.40;99.90
5196;DHT22;2617;51.006;12.436;2022-10-16T07:26:52;16.50;99.90
5196;DHT22;2617;51.006;12.436;2022-10-16T07:31:55;16.60;99.90
5196;DHT22;2617;51.006;12.436;2022-10-16T07:36:57;16.60;99.90
5196;DHT22;2617;51.006;12.436;2022-10-16T07:42:00;16.70;99.90
5196;DHT22;2617;51.006;12.436;2022-10-16T07:47:03;17.00;99.90
5196;DHT22;2617;51.006;12.436;2022-10-16T07:52:06;17.10;99.90
5196;DHT22;2617;51.006;12.436;2022-10-16T07:57:08;17.10;99.90
5196;DHT22;2617;51.006;12.436;2022-10-16T08:02:11;17.10;99.90
5196;DHT22;2617;51.006;12.436;2022-10-16T08:07:15;17.30;99.90
5196;DHT22;2617;51.006;12.436;2022-10-16T08:12:17;17.30;99.90
5196;DHT22;2617;51.006;12.436;2022-10-16T08:17:19;17.50;99.90
5196;DHT22;2617;51.006;12.436;2022-10-16T08:22:23;18.00;99.90
5196;DHT22;2617;51.006;12.436;2022-10-16T08:27:25;18.00;99.90
5196;DHT22;2617;51.006;12.436;2022-10-16T08:32:27;18.10;99.90
5196;DHT22;2617;51.006;12.436;2022-10-16T08:37:30;18.10;99.90
5196;DHT22;2617;51.006;12.436;2022-10-16T08:42:43;18.30;99.90
5196;DHT22;2617;51.006;12.436;2022-10-16T08:47:45;18.30;99.90
5196;DHT22;2617;51.006;12.436;2022-10-16T08:52:47;18.40;99.90
5196;DHT22;2617;51.006;12.436;2022-10-16T08:57:50;18.60;99.90
5196;DHT22;2617;51.006;12.436;2022-10-16T09:02:59;18.70;99.90
5196;DHT22;2617;51.006;12.436;2022-10-16T09:08:22;18.80;99.90
5196;DHT22;2617;51.006;12.436;2022-10-16T09:13:26;18.90;99.90
5196;DHT22;2617;51.006;12.436;2022-10-16T09:18:46;18.90;99.90
5196;DHT22;2617;51.006;12.436;2022-10-16T09:23:47;18.90;99.90
5196;DHT22;2617;51.006;12.436;2022-10-16T09:28:51;19.00;99.90
5196;DHT22;2617;51.006;12.436;2022-10-16T09:33:54;19.10;99.90
5196;DHT22;2617;51.006;12.436;2022-10-16T09:39:04;19.20;99.90
5196;DHT22;2617;51.006;12.436;2022-10-16T09:44:14;19.40;99.90
5196;DHT22;2617;51.006;12.436;2022-10-16T09:49:25;19.70;99.90
5196;DHT22;2617;51.006;12.436;2022-10-16T09:54:27;19.70;99.90
5196;DHT22;2617;51.006;12.436;2022-10-16T09:59:30;19.90;99.90
5196;DHT22;2617;51.006;12.436;2022-10-16T10:04:40;20.00;99.90
5196;DHT22;2617;51.006;12.436;2022-10-16T10:09:42;20.00;99.90
5196;DHT22;2617;51.006;12.436;2022-10-16T10:14:50;20.00;99.90
5196;DHT22;2617;51.006;12.436;2022-10-16T10:19:58;20.00;99.90
5196;DHT22;2617;51.006;12.436;2022-10-16T10:25:19;20.00;99.90
5196;DHT22;2617;51.006;12.436;2022-10-16T10:30:29;20.20;99.90
5196;DHT22;2617;51.006;12.436;2022-10-16T10:35:56;20.20;99.90
5196;DHT22;2617;51.006;12.436;2022-10-16T10:41:18;20.20;99.90
5196;DHT22;2617;51.006;12.436;2022-10-16T10:46:35;20.30;99.90
5196;DHT22;2617;51.006;12.436;2022-10-16T10:51:51;20.20;99.90
5196;DHT22;2617;51.006;12.436;2022-10-16T10:57:03;20.20;99.90
5196;DHT22;2617;51.006;12.436;2022-10-16T11:02:21;20.30;99.90
5196;DHT22;2617;51.006;12.436;2022-10-16T11:07:23;20.40;99.90
5196;DHT22;2617;51.006;12.436;2022-10-16T11:12:39;20.60;99.90
5196;DHT22;2617;51.006;12.436;2022-10-16T11:17:44;20.70;99.90
5196;DHT22;2617;51.006;12.436;2022-10-16T11:22:52;20.90;99.90
5196;DHT22;2617;51.006;12.436;2022-10-16T11:27:56;21.30;99.90
5196;DHT22;2617;51.006;12.436;2022-10-16T11:38:29;21.30;99.90
5196;DHT22;2617;51.006;12.436;2022-10-16T11:43:38;21.30;99.90
5196;DHT22;2617;51.006;12.436;2022-10-16T11:48:43;21.40;99.90
5196;DHT22;2617;51.006;12.436;2022-10-16T11:53:51;21.40;99.90
5196;DHT22;2617;51.006;12.436;2022-10-16T11:59:21;21.20;99.90
5196;DHT22;2617;51.006;12.436;2022-10-16T12:04:28;21.20;99.90
5196;DHT22;2617;51.006;12.436;2022-10-16T12:09:32;21.20;99.90
5196;DHT22;2617;51.006;12.436;2022-10-16T12:14:37;21.20;99.90
5196;DHT22;2617;51.006;12.436;2022-10-16T12:19:38;21.30;99.90
5196;DHT22;2617;51.006;12.436;2022-10-16T12:24:42;21.20;99.90
5196;DHT22;2617;51.006;12.436;2022-10-16T12:29:44;21.20;99.90
5196;DHT22;2617;51.006;12.436;2022-10-16T12:34:46;21.20;99.90
5196;DHT22;2617;51.006;12.436;2022-10-16T12:39:49;21.40;99.90
5196;DHT22;2617;51.006;12.436;2022-10-16T12:44:51;21.40;99.90
5196;DHT22;2617;51.006;12.436;2022-10-16T12:49:54;21.50;99.90
5196;DHT22;2617;51.006;12.436;2022-10-16T12:54:57;21.20;99.90
5196;DHT22;2617;51.006;12.436;2022-10-16T13:00:20;21.30;99.90
5196;DHT22;2617;51.006;12.436;2022-10-16T13:05:26;21.20;99.90
5196;DHT22;2617;51.006;12.436;2022-10-16T13:10:28;21.20;99.90
5196;DHT22;2617;51.006;12.436;2022-10-16T13:15:41;21.20;99.90
5196;DHT22;2617;51.006;12.436;2022-10-16T13:20:53;21.40;99.90
5196;DHT22;2617;51.006;12.436;2022-10-16T13:26:06;21.50;99.90
5196;DHT22;2617;51.006;12.436;2022-10-16T13:31:13;21.80;99.90
5196;DHT22;2617;51.006;12.436;2022-10-16T13:36:35;21.80;99.90
5196;DHT22;2617;51.006;12.436;2022-10-16T13:41:36;22.00;99.90
5196;DHT22;2617;51.006;12.436;2022-10-16T13:46:38;22.20;99.90
5196;DHT22;2617;51.006;12.436;2022-10-16T13:51:41;22.10;99.90
5196;DHT22;2617;51.006;12.436;2022-10-16T13:56:44;22.20;99.90
5196;DHT22;2617;51.006;12.436;2022-10-16T14:01:46;22.10;99.90
5196;DHT22;2617;51.006;12.436;2022-10-16T14:06:50;22.00;99.90
5196;DHT22;2617;51.006;12.436;2022-10-16T14:11:55;21.90;99.90
5196;DHT22;2617;51.006;12.436;2022-10-16T14:16:56;21.90;99.90
5196;DHT22;2617;51.006;12.436;2022-10-16T14:21:59;21.90;99.90
5196;DHT22;2617;51.006;12.436;2022-10-16T14:27:01;21.80;99.90
5196;DHT22;2617;51.006;12.436;2022-10-16T14:32:04;21.70;99.90
5196;DHT22;2617;51.006;12.436;2022-10-16T14:37:08;21.70;99.90
5196;DHT22;2617;51.006;12.436;2022-10-16T14:42:14;21.70;99.90
5196;DHT22;2617;51.006;12.436;2022-10-16T14:47:16;21.60;99.90
5196;DHT22;2617;51.006;12.436;2022-10-16T14:52:17;21.40;99.90
5196;DHT22;2617;51.006;12.436;2022-10-16T14:57:23;21.10;99.90
5196;DHT22;2617;51.006;12.436;2022-10-16T15:02:29;20.90;99.90
5196;DHT22;2617;51.006;12.436;2022-10-16T15:07:32;20.70;99.90
5196;DHT22;2617;51.006;12.436;2022-10-16T15:12:34;20.60;99.90
5196;DHT22;2617;51.006;12.436;2022-10-16T15:17:37;20.20;99.90
5196;DHT22;2617;51.006;12.436;2022-10-16T15:22:40;20.30;99.90
5196;DHT22;2617;51.006;12.436;2022-10-16T15:27:43;20.00;99.90
5196;DHT22;2617;51.006;12.436;2022-10-16T15:32:46;19.80;99.90
5196;DHT22;2617;51.006;12.436;2022-10-16T15:37:49;19.80;99.90
5196;DHT22;2617;51.006;12.436;2022-10-16T15:42:52;19.50;99.90
5196;DHT22;2617;51.006;12.436;2022-10-16T15:47:55;19.30;99.90
5196;DHT22;2617;51.006;12.436;2022-10-16T15:52:58;19.10;99.90
5196;DHT22;2617;51.006;12.436;2022-10-16T15:58:01;19.10;99.90
5196;DHT22;2617;51.006;12.436;2022-10-16T16:03:03;19.00;99.90
5196;DHT22;2617;51.006;12.436;2022-10-16T16:08:06;18.60;99.90
5196;DHT22;2617;51.006;12.436;2022-10-16T16:13:09;18.50;99.90
5196;DHT22;2617;51.006;12.436;2022-10-16T16:18:12;18.20;99.90
5196;DHT22;2617;51.006;12.436;2022-10-16T16:23:15;18.10;99.90
5196;DHT22;2617;51.006;12.436;2022-10-16T16:28:17;18.00;99.90
5196;DHT22;2617;51.006;12.436;2022-10-16T16:33:19;17.80;99.90
5196;DHT22;2617;51.006;12.436;2022-10-16T16:38:22;17.60;99.90
5196;DHT22;2617;51.006;12.436;2022-10-16T16:43:26;17.40;99.90
5196;DHT22;2617;51.006;12.436;2022-10-16T16:48:27;17.40;99.90
5196;DHT22;2617;51.006;12.436;2022-10-16T16:53:30;17.30;99.90
5196;DHT22;2617;51.006;12.436;2022-10-16T16:58:32;17.20;99.90
5196;DHT22;2617;51.006;12.436;2022-10-16T17:03:35;17.10;99.90
5196;DHT22;2617;51.006;12.436;2022-10-16T17:08:37;17.00;99.90
5196;DHT22;2617;51.006;12.436;2022-10-16T17:13:40;16.90;99.90
5196;DHT22;2617;51.006;12.436;2022-10-16T17:18:42;16.80;99.90
5196;DHT22;2617;51.006;12.436;2022-10-16T17:23:46;16.60;99.90
5196;DHT22;2617;51.006;12.436;2022-10-16T17:28:51;16.60;99.90
5196;DHT22;2617;51.006;12.436;2022-10-16T17:33:53;16.60;99.90
5196;DHT22;2617;51.006;12.436;2022-10-16T17:38:58;16.50;99.90
5196;DHT22;2617;51.006;12.436;2022-10-16T17:43:59;16.40;99.90
5196;DHT22;2617;51.006;12.436;2022-10-16T17:49:02;16.40;99.90
5196;DHT22;2617;51.006;12.436;2022-10-16T17:54:05;16.30;99.90
5196;DHT22;2617;51.006;12.436;2022-10-16T17:59:07;16.20;99.90
5196;DHT22;2617;51.006;12.436;2022-10-16T18:04:11;16.30;99.90
5196;DHT22;2617;51.006;12.436;2022-10-16T18:09:14;16.20;99.90
5196;DHT22;2617;51.006;12.436;2022-10-16T18:14:15;16.30;99.90
5196;DHT22;2617;51.006;12.436;2022-10-16T18:19:18;16.50;99.90
5196;DHT22;2617;51.006;12.436;2022-10-16T18:24:21;16.50;99.90
5196;DHT22;2617;51.006;12.436;2022-10-16T18:29:24;16.60;99.90
5196;DHT22;2617;51.006;12.436;2022-10-16T18:34:27;16.60;99.90
5196;DHT22;2617;51.006;12.436;2022-10-16T18:39:30;16.60;99.90
5196;DHT22;2617;51.006;12.436;2022-10-16T18:44:32;16.60;99.90
5196;DHT22;2617;51.006;12.436;2022-10-16T18:49:35;16.60;99.90
5196;DHT22;2617;51.006;12.436;2022-10-16T18:54:38;16.50;99.90
5196;DHT22;2617;51.006;12.436;2022-10-16T18:59:40;16.50;99.90
5196;DHT22;2617;51.006;12.436;2022-10-16T19:04:43;16.40;99.90
5196;DHT22;2617;51.006;12.436;2022-10-16T19:09:46;16.40;99.90
5196;DHT22;2617;51.006;12.436;2022-10-16T19:14:48;16.30;99.90
5196;DHT22;2617;51.006;12.436;2022-10-16T19:19:51;16.20;99.90
5196;DHT22;2617;51.006;12.436;2022-10-16T19:24:53;16.20;99.90
5196;DHT22;2617;51.006;12.436;2022-10-16T19:29:55;16.10;99.90
5196;DHT22;2617;51.006;12.436;2022-10-16T19:34:59;15.90;99.90
5196;DHT22;2617;51.006;12.436;2022-10-16T19:40:02;15.90;99.90
5196;DHT22;2617;51.006;12.436;2022-10-16T19:45:05;15.90;99.90
5196;DHT22;2617;51.006;12.436;2022-10-16T19:50:08;15.90;99.90
5196;DHT22;2617;51.006;12.436;2022-10-16T19:55:11;15.90;99.90
5196;DHT22;2617;51.006;12.436;2022-10-16T20:00:13;15.80;99.90
5196;DHT22;2617;51.006;12.436;2022-10-16T20:05:16;15.70;99.90
5196;DHT22;2617;51.006;12.436;2022-10-16T20:10:18;15.60;99.90
5196;DHT22;2617;51.006;12.436;2022-10-16T20:15:21;15.60;99.90
5196;DHT22;2617;51.006;12.436;2022-10-16T20:20:25;15.50;99.90
5196;DHT22;2617;51.006;12.436;2022-10-16T20:25:27;15.50;99.90
5196;DHT22;2617;51.006;12.436;2022-10-16T20:30:35;15.50;99.90
5196;DHT22;2617;51.006;12.436;2022-10-16T20:35:38;15.20;99.90
5196;DHT22;2617;51.006;12.436;2022-10-16T20:40:43;15.10;99.90
5196;DHT22;2617;51.006;12.436;2022-10-16T20:45:44;15.10;99.90
5196;DHT22;2617;51.006;12.436;2022-10-16T20:50:47;14.70;99.90
5196;DHT22;2617;51.006;12.436;2022-10-16T20:55:50;14.60;99.90
5196;DHT22;2617;51.006;12.436;2022-10-16T21:00:53;14.50;99.90
5196;DHT22;2617;51.006;12.436;2022-10-16T21:05:56;14.40;99.90
5196;DHT22;2617;51.006;12.436;2022-10-16T21:10:59;14.40;99.90
5196;DHT22;2617;51.006;12.436;2022-10-16T21:16:02;14.30;99.90
5196;DHT22;2617;51.006;12.436;2022-10-16T21:21:05;14.20;99.90
5196;DHT22;2617;51.006;12.436;2022-10-16T21:26:08;14.20;99.90
5196;DHT22;2617;51.006;12.436;2022-10-16T21:31:14;14.20;99.90
5196;DHT22;2617;51.006;12.436;2022-10-16T21:36:18;14.20;99.90
5196;DHT22;2617;51.006;12.436;2022-10-16T21:41:22;14.10;99.90
5196;DHT22;2617;51.006;12.436;2022-10-16T21:46:24;14.00;99.90
5196;DHT22;2617;51.006;12.436;2022-10-16T21:51:29;13.90;99.90
5196;DHT22;2617;51.006;12.436;2022-10-16T21:56:30;13.90;99.90
5196;DHT22;2617;51.006;12.436;2022-10-16T22:01:34;13.80;99.90
5196;DHT22;2617;51.006;12.436;2022-10-16T22:06:36;13.80;99.90
5196;DHT22;2617;51.006;12.436;2022-10-16T22:11:40;13.80;99.90
5196;DHT22;2617;51.006;12.436;2022-10-16T22:16:43;13.80;99.90
5196;DHT22;2617;51.006;12.436;2022-10-16T22:21:46;13.80;99.90
5196;DHT22;2617;51.006;12.436;2022-10-16T22:26:49;13.90;99.90
5196;DHT22;2617;51.006;12.436;2022-10-16T22:31:51;13.90;99.90
5196;DHT22;2617;51.006;12.436;2022-10-16T22:36:53;13.90;99.90
5196;DHT22;2617;51.006;12.436;2022-10-16T22:41:56;13.90;99.90
5196;DHT22;2617;51.006;12.436;2022-10-16T22:46:58;13.80;99.90
5196;DHT22;2617;51.006;12.436;2022-10-16T22:52:00;13.70;99.90
5196;DHT22;2617;51.006;12.436;2022-10-16T22:57:04;13.50;99.90
5196;DHT22;2617;51.006;12.436;2022-10-16T23:02:06;13.50;99.90
5196;DHT22;2617;51.006;12.436;2022-10-16T23:07:09;13.30;99.90
5196;DHT22;2617;51.006;12.436;2022-10-16T23:12:12;13.30;99.90
5196;DHT22;2617;51.006;12.436;2022-10-16T23:17:15;13.30;99.90
5196;DHT22;2617;51.006;12.436;2022-10-16T23:22:17;13.20;99.90
5196;DHT22;2617;51.006;12.436;2022-10-16T23:27:20;13.20;99.90
5196;DHT22;2617;51.006;12.436;2022-10-16T23:32:23;13.20;99.90
5196;DHT22;2617;51.006;12.436;2022-10-16T23:37:25;13.10;99.90
5196;DHT22;2617;51.006;12.436;2022-10-16T23:42:28;13.10;99.90
5196;DHT22;2617;51.006;12.436;2022-10-16T23:47:30;13.00;99.90
5196;DHT22;2617;51.006;12.436;2022-10-16T23:52:32;12.90;99.90
5196;DHT22;2617;51.006;12.436;2022-10-16T23:57:35;12.90;99.90
